Time;durP1;ratioP1;P1;durP2;ratioP2;P2;SDS_P1;SDS_P2;PMS_P1;PMS_P2;Temp;Humidity;BMP_temperature;BMP_pressure;BME280_temperature;BME280_humidity;BME280_pressure;Samples;Min_cycle;Max_cycle;Signal;HPM_P1;HPM_P2
2023/01/01 00:01:09;;;;;;;17.90;10.25;;;;;;;16.47;59.56;98287.03;5115352;27;20047;-26
2023/01/01 00:03:35;;;;;;;18.73;10.55;;;;;;;16.50;59.61;98288.94;5116472;27;20030;-26
2023/01/01 00:06:20;;;;;;;17.38;10.68;;;;;;;16.48;59.46;98293.28;5098872;28;20027;-27
2023/01/01 00:08:45;;;;;;;16.45;10.75;;;;;;;16.44;59.57;98290.59;5114463;28;20062;-26
2023/01/01 00:11:11;;;;;;;18.42;10.48;;;;;;;16.46;59.56;98295.66;5114437;28;20047;-26
2023/01/01 00:13:39;;;;;;;16.75;10.40;;;;;;;16.55;59.40;98301.38;5113154;28;20095;-26
2023/01/01 00:16:10;;;;;;;19.25;10.70;;;;;;;16.56;59.13;98302.94;5114051;27;20023;-26
2023/01/01 00:18:36;;;;;;;17.80;10.57;;;;;;;16.50;59.28;98290.91;5114116;28;20027;-26
2023/01/01 00:21:12;;;;;;;15.70;9.82;;;;;;;16.49;59.47;98294.84;5113806;28;20027;-26
2023/01/01 00:23:39;;;;;;;16.70;10.98;;;;;;;16.50;59.08;98282.69;5132866;27;20031;-27
2023/01/01 00:26:14;;;;;;;16.67;9.95;;;;;;;16.46;59.47;98282.75;5122051;27;20058;-26
2023/01/01 00:28:40;;;;;;;13.80;9.18;;;;;;;16.48;59.28;98277.63;5113745;28;20031;-26
2023/01/01 00:31:18;;;;;;;15.88;10.20;;;;;;;16.50;59.04;98286.19;5113743;28;20028;-26
2023/01/01 00:33:51;;;;;;;15.65;9.82;;;;;;;16.51;59.16;98287.75;5114123;28;20026;-26
2023/01/01 00:36:18;;;;;;;17.25;9.40;;;;;;;16.49;59.07;98283.88;5098433;28;20430;-26
2023/01/01 00:38:44;;;;;;;16.27;9.02;;;;;;;16.52;59.21;98275.59;5124767;28;20471;-26
2023/01/01 00:41:11;;;;;;;18.02;9.77;;;;;;;16.49;58.99;98281.16;5112935;28;20070;-26
2023/01/01 00:43:36;;;;;;;18.60;9.30;;;;;;;16.46;58.96;98274.53;5116635;28;20023;-26
2023/01/01 00:46:03;;;;;;;16.20;9.15;;;;;;;16.51;59.03;98276.78;5111425;28;20050;-27
2023/01/01 00:48:29;;;;;;;19.30;9.43;;;;;;;16.48;59.09;98279.59;5111434;28;20072;-26
2023/01/01 00:50:55;;;;;;;19.05;11.10;;;;;;;16.51;58.90;98276.03;5111529;28;20111;-26
2023/01/01 00:53:21;;;;;;;26.95;12.95;;;;;;;16.56;58.95;98285.72;5110960;28;20034;-26
2023/01/01 00:55:48;;;;;;;23.65;12.52;;;;;;;16.58;58.74;98278.63;5110134;28;20015;-26
2023/01/01 00:58:14;;;;;;;23.67;12.15;;;;;;;16.50;58.87;98272.50;5121497;28;20038;-26
2023/01/01 01:00:41;;;;;;;23.10;11.23;;;;;;;16.44;59.27;98270.69;5117959;28;20036;-25
2023/01/01 01:03:10;;;;;;;21.45;11.10;;;;;;;16.53;58.83;98279.13;5111471;28;20072;-27
2023/01/01 01:05:37;;;;;;;23.52;10.98;;;;;;;16.44;59.25;98278.91;5111051;28;20050;-26
2023/01/01 01:08:03;;;;;;;19.42;10.93;;;;;;;16.51;58.66;98276.78;5111227;28;20456;-26
2023/01/01 01:10:29;;;;;;;17.15;10.07;;;;;;;16.48;58.85;98279.59;5111270;28;20034;-25
2023/01/01 01:12:54;;;;;;;19.77;9.90;;;;;;;16.50;58.77;98290.91;5111588;28;20024;-25
2023/01/01 01:15:20;;;;;;;21.02;9.95;;;;;;;16.43;58.97;98291.06;5124169;28;20430;-26
2023/01/01 01:17:46;;;;;;;20.20;9.60;;;;;;;16.50;58.73;98296.38;5116207;28;20368;-26
2023/01/01 01:20:11;;;;;;;21.75;9.60;;;;;;;16.49;58.79;98290.13;5110691;28;20050;-26
2023/01/01 01:22:38;;;;;;;17.80;8.82;;;;;;;16.51;58.86;98304.19;5116715;28;20456;-26
2023/01/01 01:25:04;;;;;;;16.35;8.85;;;;;;;16.50;58.96;98294.41;5113518;28;20479;-27
2023/01/01 01:27:30;;;;;;;13.57;7.68;;;;;;;16.49;58.84;98284.66;5114774;28;20102;-26
2023/01/01 01:29:56;;;;;;;17.35;7.97;;;;;;;16.47;58.88;98287.03;5104341;27;20076;-26
2023/01/01 01:32:21;;;;;;;14.73;7.35;;;;;;;16.49;58.85;98294.84;5123358;27;20027;-26
2023/01/01 01:34:47;;;;;;;14.68;7.20;;;;;;;16.45;59.04;98297.63;5115003;28;20077;-26
2023/01/01 01:37:12;;;;;;;13.65;6.80;;;;;;;16.36;59.38;98291.94;5115237;27;20024;-27
2023/01/01 01:39:38;;;;;;;14.20;6.75;;;;;;;16.35;58.97;98290.41;5126477;27;20032;-26
2023/01/01 01:42:04;;;;;;;17.42;7.78;;;;;;;16.36;59.06;98285.69;5121576;27;20080;-26
2023/01/01 01:44:45;;;;;;;14.30;7.20;;;;;;;16.49;58.71;98286.63;5127501;27;20471;-26
2023/01/01 01:47:20;;;;;;;11.48;5.93;;;;;;;16.52;58.63;98286.56;5114742;28;20157;-26
2023/01/01 01:49:46;;;;;;;10.38;6.00;;;;;;;16.46;58.73;98281.97;5115187;27;20030;-26
2023/01/01 01:52:12;;;;;;;9.57;5.55;;;;;;;16.40;58.80;98272.72;5117087;28;20108;-26
2023/01/01 01:54:38;;;;;;;11.18;5.75;;;;;;;16.43;58.70;98280.88;5116803;28;20432;-26
2023/01/01 01:57:07;;;;;;;10.32;5.13;;;;;;;16.53;58.56;98279.13;5135121;27;20027;-27
2023/01/01 01:59:36;;;;;;;9.75;5.25;;;;;;;16.47;58.65;98275.31;5118363;27;20430;-26
2023/01/01 02:02:02;;;;;;;8.20;5.07;;;;;;;16.50;58.49;98272.50;5131206;27;20112;-26
2023/01/01 02:04:28;;;;;;;8.85;5.10;;;;;;;16.49;58.37;98268.22;5116376;28;20052;-27
2023/01/01 02:06:54;;;;;;;8.80;4.50;;;;;;;16.44;58.63;98267.97;5135609;27;20475;-26
2023/01/01 02:09:20;;;;;;;10.68;5.03;;;;;;;16.50;58.60;98271.75;5134171;27;20043;-26
2023/01/01 02:11:46;;;;;;;8.55;4.65;;;;;;;16.44;58.51;98267.97;5122827;27;20073;-26
2023/01/01 02:14:11;;;;;;;9.57;5.15;;;;;;;16.35;58.85;98276.69;5116162;28;20035;-26
2023/01/01 02:16:54;;;;;;;11.13;4.80;;;;;;;16.38;58.79;98275.09;5116383;28;20027;-26
2023/01/01 02:19:19;;;;;;;10.50;4.32;;;;;;;16.43;58.83;98264.44;5136666;27;20075;-25
2023/01/01 02:22:06;;;;;;;6.20;4.30;;;;;;;16.46;58.42;98268.28;5136569;27;20023;-26
2023/01/01 02:24:43;;;;;;;8.90;4.22;;;;;;;16.45;58.63;98264.78;5136816;27;20035;-26
2023/01/01 02:27:15;;;;;;;8.75;4.03;;;;;;;16.48;58.37;98266.69;5116133;28;20038;-27
2023/01/01 02:29:55;;;;;;;7.97;4.20;;;;;;;16.48;58.66;98258.47;5099347;27;20020;-27
2023/01/01 02:32:32;;;;;;;5.88;3.85;;;;;;;16.40;58.74;98259.81;5126071;27;20031;-26
2023/01/01 02:35:33;;;;;;;11.68;4.25;;;;;;;16.45;58.71;98258.53;5121543;27;20101;-26
2023/01/01 02:37:54;;;;;;;5.65;4.13;;;;;;;16.39;58.81;98260.22;5133376;27;20023;-26
2023/01/01 02:40:23;;;;;;;7.72;4.15;;;;;;;16.43;58.61;98258.19;5125993;27;20085;-26
2023/01/01 02:42:50;;;;;;;5.97;3.75;;;;;;;16.44;58.51;98255.00;5132365;27;20019;-27
2023/01/01 02:45:16;;;;;;;6.95;3.40;;;;;;;16.50;58.44;98252.56;5115625;28;20376;-26
2023/01/01 02:47:41;;;;;;;5.55;3.40;;;;;;;16.51;58.52;98254.09;5115797;28;20018;-26
2023/01/01 02:50:15;;;;;;;6.22;3.22;;;;;;;16.56;58.20;98250.91;5115336;28;20024;-26
2023/01/01 02:52:58;;;;;;;7.65;3.33;;;;;;;16.51;58.62;98246.66;5115531;28;20015;-26
2023/01/01 02:55:56;;;;;;;7.90;3.00;;;;;;;16.46;58.82;98246.38;5115630;28;20414;-26
2023/01/01 03:01:48;;;;;;;6.72;2.95;;;;;;;16.46;58.72;98244.41;5115810;28;20055;-26
2023/01/01 03:04:56;;;;;;;7.07;3.08;;;;;;;16.42;58.71;98241.00;5115376;28;20456;-26
2023/01/01 03:07:39;;;;;;;4.60;2.70;;;;;;;16.50;58.47;98236.13;5031228;28;20043;-26
2023/01/01 03:10:16;;;;;;;5.07;3.13;;;;;;;16.46;58.39;98236.19;5032547;28;20084;-26
2023/01/01 03:12:54;;;;;;;5.88;2.83;;;;;;;16.45;58.42;98233.88;5032829;28;20071;-26
2023/01/01 03:15:22;;;;;;;3.40;2.40;;;;;;;16.42;58.65;98235.50;5032334;28;20450;-26
2023/01/01 03:18:09;;;;;;;4.97;2.63;;;;;;;16.44;58.47;98235.09;5032681;28;20037;-26
2023/01/01 03:20:39;;;;;;;6.22;2.72;;;;;;;16.36;58.61;98230.94;5032236;28;20386;-28
2023/01/01 03:23:12;;;;;;;6.78;2.58;;;;;;;16.38;58.31;98232.06;5031663;28;20037;-27
2023/01/01 03:26:06;;;;;;;5.53;2.58;;;;;;;16.40;58.46;98228.91;5032488;28;20099;-25
2023/01/01 03:28:37;;;;;;;3.80;2.40;;;;;;;16.42;58.38;98235.50;5030671;28;20037;-26
2023/01/01 03:31:03;;;;;;;3.60;2.75;;;;;;;16.42;58.34;98234.75;5032194;28;20120;-26
2023/01/01 03:33:45;;;;;;;4.20;2.30;;;;;;;16.38;58.26;98250.44;5032437;28;20261;-26
2023/01/01 03:36:32;;;;;;;3.83;2.40;;;;;;;16.39;58.13;98252.78;5031887;28;20179;-25
2023/01/01 03:39:03;;;;;;;3.80;2.53;;;;;;;16.38;58.37;98256.69;5032379;28;20488;-26
2023/01/01 03:41:43;;;;;;;3.72;2.47;;;;;;;16.36;58.16;98255.56;5032227;28;20343;-26
2023/01/01 03:58:07;;;;;;;3.53;2.75;;;;;;;16.40;58.15;98242.59;5132604;27;20139;-26
2023/01/01 04:00:36;;;;;;;5.32;2.78;;;;;;;16.49;57.79;98240.06;5120052;27;20048;-27
2023/01/01 04:03:07;;;;;;;5.18;2.80;;;;;;;16.36;58.11;98244.63;5124595;27;20023;-26
2023/01/01 04:05:36;;;;;;;4.30;2.60;;;;;;;16.36;58.07;98244.63;5113923;28;20084;-25
2023/01/01 04:08:03;;;;;;;4.38;2.53;;;;;;;16.37;57.99;98246.16;5116377;28;20016;-26
2023/01/01 04:10:31;;;;;;;4.95;2.72;;;;;;;16.41;57.99;98239.44;5099641;28;20148;-26
2023/01/01 04:12:58;;;;;;;3.78;2.75;;;;;;;16.43;57.61;98248.00;5114063;28;20016;-26
2023/01/01 04:15:26;;;;;;;4.75;2.80;;;;;;;16.34;57.96;98256.00;5114131;28;20023;-25
2023/01/01 04:17:52;;;;;;;3.80;2.83;;;;;;;16.37;57.64;98249.69;5114063;28;20058;-26
2023/01/01 04:20:19;;;;;;;4.18;2.72;;;;;;;16.32;57.69;98249.41;5113897;28;20019;-26
2023/01/01 04:22:45;;;;;;;4.47;2.83;;;;;;;16.28;57.69;98254.94;5114041;28;20512;-26
2023/01/01 04:25:11;;;;;;;3.50;2.47;;;;;;;16.25;57.92;98246.78;5117860;27;20019;-26
2023/01/01 04:27:38;;;;;;;4.22;2.80;;;;;;;16.31;57.70;98250.59;5123343;27;20372;-26
2023/01/01 04:30:05;;;;;;;3.65;2.78;;;;;;;16.40;57.48;98253.56;5118142;27;20039;-26
2023/01/01 04:32:30;;;;;;;3.90;2.78;;;;;;;16.28;58.06;98257.69;5122485;28;20023;-26
2023/01/01 04:34:56;;;;;;;5.43;2.88;;;;;;;16.31;57.76;98259.59;5118702;28;20379;-27
2023/01/01 04:37:21;;;;;;;3.75;2.70;;;;;;;16.33;57.63;98261.88;5116293;28;20055;-26
2023/01/01 04:40:25;;;;;;;4.45;2.78;;;;;;;16.31;57.66;98259.59;5115783;28;20022;-25
2023/01/01 04:42:53;;;;;;;4.32;2.95;;;;;;;16.30;57.81;98257.28;5114118;28;20071;-26
2023/01/01 04:45:18;;;;;;;4.25;3.10;;;;;;;16.27;57.93;98266.31;5114162;28;20084;-26
2023/01/01 04:47:44;;;;;;;6.63;3.80;;;;;;;16.29;57.85;98272.91;5113688;28;20023;-26
2023/01/01 04:50:09;;;;;;;6.75;3.50;;;;;;;16.31;57.89;98277.97;5113605;28;20036;-26
2023/01/01 04:52:35;;;;;;;5.00;3.45;;;;;;;16.35;57.57;98289.63;5113852;28;20468;-26
2023/01/01 04:55:01;;;;;;;5.25;3.75;;;;;;;16.36;57.75;98277.47;5113431;28;20028;-26
2023/01/01 04:57:29;;;;;;;6.15;3.80;;;;;;;16.32;57.65;98280.28;5113894;28;20018;-26
2023/01/01 04:59:54;;;;;;;6.97;3.55;;;;;;;16.35;57.67;98289.63;5125899;27;20440;-26
2023/01/01 05:02:20;;;;;;;5.38;3.42;;;;;;;16.29;57.50;98285.84;5120700;27;20102;-26
2023/01/01 05:04:45;;;;;;;6.13;3.58;;;;;;;16.29;57.63;98286.59;5127986;27;20031;-26
2023/01/01 05:07:11;;;;;;;4.15;3.45;;;;;;;16.35;57.35;98289.63;5138023;27;20015;-27
2023/01/01 05:09:36;;;;;;;6.07;4.00;;;;;;;16.32;57.24;98287.75;5138363;27;20072;-26
2023/01/01 05:12:02;;;;;;;5.45;4.25;;;;;;;16.30;57.32;98292.84;5119917;27;20011;-26
2023/01/01 05:14:27;;;;;;;7.28;3.90;;;;;;;16.32;57.22;98293.22;5127977;27;20043;-26
2023/01/01 05:16:53;;;;;;;5.40;4.13;;;;;;;16.31;57.36;98288.94;5117330;28;20019;-26
2023/01/01 05:19:18;;;;;;;6.65;3.95;;;;;;;16.26;57.31;98292.91;5117180;28;20031;-26
2023/01/01 05:21:45;;;;;;;4.88;3.65;;;;;;;16.24;57.44;98292.56;5117651;28;20482;-26
2023/01/01 05:24:10;;;;;;;5.32;3.65;;;;;;;16.31;57.43;98299.88;5117197;28;20026;-26
2023/01/01 05:26:39;;;;;;;5.30;3.72;;;;;;;16.35;57.02;98303.31;5131103;27;20011;-26
2023/01/01 05:29:05;;;;;;;6.57;4.18;;;;;;;16.29;57.23;98307.75;5119512;27;20060;-26
2023/01/01 05:31:33;;;;;;;5.88;4.10;;;;;;;16.31;57.24;98310.84;5117118;28;20019;-25
2023/01/01 05:33:59;;;;;;;7.57;4.28;;;;;;;16.32;57.25;98313.13;5127546;27;20023;-26
2023/01/01 05:36:37;;;;;;;5.05;4.22;;;;;;;16.31;57.23;98305.34;5120376;27;20435;-26
2023/01/01 05:39:03;;;;;;;6.50;4.60;;;;;;;16.27;57.38;98304.63;5116823;28;20080;-27
2023/01/01 05:41:30;;;;;;;7.07;5.22;;;;;;;16.28;57.18;98296.00;5116861;28;20024;-26
2023/01/01 05:43:55;;;;;;;5.93;4.72;;;;;;;16.26;57.22;98301.13;5111109;27;20023;-26
2023/01/01 05:46:23;;;;;;;5.55;4.70;;;;;;;16.30;57.27;98306.56;5123592;27;20033;-26
2023/01/01 05:48:49;;;;;;;7.65;5.00;;;;;;;16.27;57.35;98305.41;5137625;27;20027;-26
2023/01/01 05:51:21;;;;;;;7.15;4.72;;;;;;;16.27;57.38;98304.63;5136814;27;20027;-26
2023/01/01 05:53:47;;;;;;;6.88;4.40;;;;;;;16.27;57.29;98299.94;5137230;27;20030;-26
2023/01/01 05:56:14;;;;;;;6.22;4.53;;;;;;;16.33;57.03;98300.22;5129908;27;20031;-25
2023/01/01 05:58:40;;;;;;;5.70;4.65;;;;;;;16.33;56.97;98295.50;5116518;28;20027;-26
2023/01/01 06:01:11;;;;;;;6.82;4.25;;;;;;;16.25;57.27;98299.56;5116458;28;20547;-26
2023/01/01 06:03:38;;;;;;;7.60;4.22;;;;;;;16.26;57.12;98292.13;5116999;27;20032;-26
2023/01/01 06:06:13;;;;;;;6.70;4.07;;;;;;;16.25;57.22;98294.09;5116452;28;20035;-26
2023/01/01 06:08:39;;;;;;;5.95;4.50;;;;;;;16.29;57.20;98299.53;5126492;27;20083;-26
2023/01/01 06:11:07;;;;;;;5.50;4.25;;;;;;;16.22;57.16;98294.94;5115044;28;20467;-26
2023/01/01 06:13:32;;;;;;;5.22;4.53;;;;;;;16.23;57.21;98293.75;5116309;28;20076;-26
2023/01/01 06:16:00;;;;;;;6.40;4.57;;;;;;;16.28;57.09;98295.25;5116348;28;20023;-27
2023/01/01 06:18:28;;;;;;;5.55;4.35;;;;;;;16.23;57.26;98288.28;5118063;27;20024;-25
2023/01/01 06:20:53;;;;;;;6.22;4.07;;;;;;;16.25;57.08;98288.63;5136529;27;20065;-26
2023/01/01 06:23:19;;;;;;;6.30;4.28;;;;;;;16.25;56.94;98279.66;5120621;27;20475;-26
2023/01/01 06:25:45;;;;;;;5.30;4.00;;;;;;;16.23;56.99;98284.75;5115976;28;20050;-26
2023/01/01 06:28:10;;;;;;;5.30;3.75;;;;;;;16.28;56.84;98285.06;5116063;28;20057;-26
2023/01/01 06:30:36;;;;;;;4.53;3.85;;;;;;;16.24;56.90;98284.34;5125097;27;20109;-26
2023/01/01 06:33:03;;;;;;;5.75;3.67;;;;;;;16.26;56.90;98283.94;5120268;27;20032;-26
2023/01/01 06:35:29;;;;;;;4.68;3.85;;;;;;;16.23;57.03;98271.06;5116070;28;20070;-26
2023/01/01 06:37:57;;;;;;;7.32;4.15;;;;;;;16.27;56.83;98283.50;5118631;27;20023;-26
2023/01/01 06:40:22;;;;;;;5.95;4.18;;;;;;;16.22;57.17;98285.94;5126464;27;20099;-26
2023/01/01 06:42:48;;;;;;;5.43;4.00;;;;;;;16.24;56.88;98291.78;5116009;28;20448;-27
2023/01/01 06:45:13;;;;;;;5.93;4.18;;;;;;;16.23;57.18;98276.53;5125333;27;20023;-26
2023/01/01 06:47:39;;;;;;;8.93;4.38;;;;;;;16.19;57.10;98268.41;5119306;27;20028;-26
2023/01/01 06:50:05;;;;;;;5.40;3.85;;;;;;;16.25;57.16;98266.72;5115628;28;20356;-26
2023/01/01 06:52:30;;;;;;;6.07;4.45;;;;;;;16.16;57.12;98272.75;5115719;27;20028;-26
2023/01/01 06:54:56;;;;;;;7.22;4.82;;;;;;;16.29;56.73;98283.88;5125319;27;20026;-26
2023/01/01 06:57:23;;;;;;;6.28;4.10;;;;;;;16.23;57.17;98282.03;5119149;27;20019;-26
2023/01/01 06:59:48;;;;;;;7.57;4.72;;;;;;;16.23;57.00;98282.78;5115157;28;20072;-26
2023/01/01 07:02:13;;;;;;;6.85;3.92;;;;;;;16.23;56.92;98271.84;5129115;27;20032;-26
2023/01/01 07:04:39;;;;;;;5.70;4.50;;;;;;;16.18;57.19;98275.09;5115576;28;20016;-26
2023/01/01 07:07:05;;;;;;;6.57;4.88;;;;;;;16.18;56.93;98264.13;5115554;28;20023;-26
2023/01/01 07:09:30;;;;;;;7.22;4.43;;;;;;;16.22;57.21;98264.06;5096698;28;20433;-26
2023/01/01 07:11:56;;;;;;;5.18;4.47;;;;;;;16.22;57.06;98270.28;5129030;27;20076;-26
2023/01/01 07:14:21;;;;;;;5.82;4.38;;;;;;;16.20;57.00;98283.63;5115067;28;20467;-26
2023/01/01 07:16:47;;;;;;;5.68;4.18;;;;;;;16.28;56.86;98285.06;5128668;27;20422;-26
2023/01/01 07:19:12;;;;;;;9.23;5.53;;;;;;;16.22;57.02;98291.41;5114855;28;20069;-26
2023/01/01 07:21:44;;;;;;;6.53;4.30;;;;;;;16.21;57.04;98293.38;5116940;28;20028;-26
2023/01/01 07:24:12;;;;;;;7.38;4.50;;;;;;;16.27;56.78;98289.00;5135528;27;20015;-26
2023/01/01 07:26:37;;;;;;;6.47;4.07;;;;;;;16.30;56.93;98303.81;5117862;27;20019;-27
2023/01/01 07:29:03;;;;;;;6.30;4.22;;;;;;;16.24;57.04;98302.72;5114907;28;20094;-26
2023/01/01 07:31:29;;;;;;;8.48;4.88;;;;;;;16.27;56.92;98304.63;5096397;28;20020;-26
2023/01/01 07:33:54;;;;;;;7.15;4.25;;;;;;;16.26;56.93;98309.34;5125298;27;20027;-26
2023/01/01 07:36:19;;;;;;;6.43;4.78;;;;;;;16.30;56.98;98301.06;5103059;27;20027;-27
2023/01/01 07:38:45;;;;;;;7.70;4.50;;;;;;;16.29;57.14;98302.25;5114880;28;20118;-26
2023/01/01 07:41:10;;;;;;;6.22;4.95;;;;;;;16.30;57.07;98304.59;5118523;27;20023;-26
2023/01/01 07:43:36;;;;;;;9.38;5.93;;;;;;;16.23;57.28;98314.88;5124449;27;20101;-26
2023/01/01 07:46:02;;;;;;;7.78;4.80;;;;;;;16.30;57.21;98301.06;5114388;28;20030;-26
2023/01/01 07:48:28;;;;;;;8.93;5.80;;;;;;;16.22;57.39;98303.16;5114453;28;20056;-26
2023/01/01 07:50:54;;;;;;;9.70;5.75;;;;;;;16.26;57.43;98306.59;5114261;28;20022;-26
2023/01/01 07:53:19;;;;;;;10.45;6.00;;;;;;;16.21;57.51;98309.03;5114454;28;20027;-26
2023/01/01 07:55:45;;;;;;;9.90;5.78;;;;;;;16.23;57.58;98312.91;5114474;28;20482;-26
2023/01/01 07:58:11;;;;;;;9.10;5.93;;;;;;;16.24;57.52;98314.47;5113918;28;20080;-26
2023/01/01 08:00:37;;;;;;;9.02;6.28;;;;;;;16.25;57.72;98316.00;5116761;27;20040;-26
2023/01/01 08:03:05;;;;;;;7.65;5.47;;;;;;;16.31;57.65;98311.59;5114269;28;20043;-26
2023/01/01 08:05:32;;;;;;;8.00;4.93;;;;;;;16.27;57.58;98321.84;5113909;28;20110;-26
2023/01/01 08:07:58;;;;;;;8.27;5.63;;;;;;;16.28;57.83;98306.97;5114281;28;20015;-26
2023/01/01 08:10:23;;;;;;;7.65;5.18;;;;;;;16.25;57.89;98312.50;5113972;27;20059;-26
2023/01/01 08:12:49;;;;;;;8.15;5.28;;;;;;;16.29;57.72;98308.50;5113883;28;20023;-26
2023/01/01 08:15:15;;;;;;;9.32;5.05;;;;;;;16.26;58.11;98303.88;5095906;28;20019;-25
2023/01/01 08:17:41;;;;;;;8.50;5.25;;;;;;;16.27;58.03;98304.63;5123231;27;20380;-26
2023/01/01 08:20:07;;;;;;;7.43;5.20;;;;;;;16.26;58.12;98295.66;5118662;27;20022;-25
2023/01/01 08:22:32;;;;;;;8.57;4.95;;;;;;;16.31;58.06;98303.41;5113932;28;20023;-26
2023/01/01 08:24:58;;;;;;;7.93;4.82;;;;;;;16.35;57.97;98312.31;5113756;28;20039;-25
2023/01/01 08:27:23;;;;;;;8.18;5.45;;;;;;;16.35;57.90;98311.53;5113959;28;20076;-28
2023/01/01 08:29:49;;;;;;;6.75;5.07;;;;;;;16.19;58.96;98303.22;5113599;28;20060;-26
2023/01/01 08:32:14;;;;;;;8.32;5.00;;;;;;;16.24;58.79;98308.97;5114103;28;20472;-27
2023/01/01 08:34:40;;;;;;;6.28;4.95;;;;;;;16.27;58.66;98312.84;5113494;28;20024;-26
2023/01/01 08:37:06;;;;;;;7.03;4.88;;;;;;;16.26;58.66;98308.56;5113793;28;20015;-26
2023/01/01 08:39:31;;;;;;;7.57;4.75;;;;;;;16.36;58.18;98319.31;5113506;28;20474;-26
2023/01/01 08:41:57;;;;;;;9.38;5.15;;;;;;;16.29;58.33;98314.00;5113493;28;20022;-26
2023/01/01 08:44:23;;;;;;;9.55;5.20;;;;;;;16.36;58.56;98321.28;5128655;28;20031;-25
2023/01/01 08:46:51;;;;;;;7.07;4.63;;;;;;;16.33;58.70;98320.16;5134278;28;20352;-26
2023/01/01 08:49:16;;;;;;;7.40;4.50;;;;;;;16.24;58.86;98322.66;5118819;28;20027;-26
2023/01/01 08:51:41;;;;;;;9.63;4.95;;;;;;;16.26;58.81;98325.00;5122255;28;20475;-26
2023/01/01 08:54:07;;;;;;;6.03;4.35;;;;;;;16.14;59.58;98335.34;5118108;28;20494;-26
2023/01/01 08:56:32;;;;;;;7.53;4.95;;;;;;;16.31;59.22;98330.78;5113618;28;20363;-26
2023/01/01 08:58:58;;;;;;;7.93;4.45;;;;;;;16.34;59.04;98331.88;5113537;28;20032;-26
2023/01/01 09:01:26;;;;;;;8.05;5.28;;;;;;;16.28;59.52;98333.56;5113430;28;20053;-26
2023/01/01 09:03:52;;;;;;;5.65;4.30;;;;;;;16.29;59.51;98329.66;5095368;28;20088;-26
2023/01/01 09:06:18;;;;;;;9.55;4.50;;;;;;;16.31;59.25;98321.78;5122458;28;20031;-26
2023/01/01 09:08:43;;;;;;;6.40;4.40;;;;;;;16.24;59.65;98324.63;5117242;28;20098;-26
2023/01/01 09:11:22;;;;;;;7.60;4.78;;;;;;;16.29;59.35;98324.16;5113724;28;20375;-27
2023/01/01 09:13:51;;;;;;;6.90;4.40;;;;;;;16.16;60.10;98322.03;5113181;28;20030;-26
2023/01/01 09:16:17;;;;;;;7.97;4.43;;;;;;;16.34;59.41;98315.44;5113556;28;20042;-26
2023/01/01 09:18:43;;;;;;;6.40;4.35;;;;;;;16.24;59.87;98317.19;5131110;28;20015;-26
2023/01/01 09:21:08;;;;;;;7.78;4.22;;;;;;;16.21;59.95;98323.50;5122903;28;20483;-25
2023/01/01 09:23:35;;;;;;;7.47;4.20;;;;;;;16.31;59.48;98324.53;5112693;28;20046;-26
2023/01/01 09:26:06;;;;;;;6.75;4.43;;;;;;;16.35;59.50;98322.47;5122820;28;20020;-25
2023/01/01 09:28:31;;;;;;;10.23;4.40;;;;;;;16.24;59.95;98327.38;5113376;28;20012;-26
2023/01/01 09:30:57;;;;;;;9.02;4.75;;;;;;;16.26;60.08;98316.78;5114118;28;20474;-26
2023/01/01 09:33:22;;;;;;;9.55;4.65;;;;;;;16.35;59.60;98322.47;5115214;28;20024;-26
2023/01/01 09:35:48;;;;;;;7.03;4.70;;;;;;;16.30;59.64;98322.97;5095010;28;20371;-26
2023/01/01 09:38:13;;;;;;;9.55;4.88;;;;;;;16.27;59.83;98324.56;5094812;28;20022;-26
2023/01/01 09:41:09;;;;;;;7.55;4.55;;;;;;;16.15;60.44;98325.97;5124124;28;20023;-26
2023/01/01 09:43:44;;;;;;;8.50;4.45;;;;;;;16.20;60.80;98335.63;5115415;28;20027;-26
2023/01/01 09:46:10;;;;;;;10.77;4.72;;;;;;;16.20;60.52;98326.66;5114684;27;20475;-26
2023/01/01 09:48:48;;;;;;;10.00;4.70;;;;;;;16.16;60.62;98326.72;5116686;28;20036;-26
2023/01/01 09:51:17;;;;;;;6.40;4.45;;;;;;;16.22;60.48;98332.47;5116931;28;20094;-27
2023/01/01 09:54:06;;;;;;;7.28;3.95;;;;;;;16.09;60.73;98330.34;5116906;28;20019;-26
2023/01/01 09:56:35;;;;;;;7.72;4.13;;;;;;;16.19;60.67;98333.34;5116789;28;20029;-26
2023/01/01 09:59:01;;;;;;;9.73;4.72;;;;;;;16.05;61.20;98320.66;5098101;28;20032;-26
2023/01/01 10:01:54;;;;;;;6.35;4.45;;;;;;;16.01;61.37;98323.44;5116618;28;20019;-26
2023/01/01 10:04:28;;;;;;;7.97;4.32;;;;;;;16.06;61.55;98319.47;5116496;28;20047;-26
2023/01/01 10:07:00;;;;;;;8.10;4.40;;;;;;;16.28;60.24;98317.13;5116736;28;20102;-26
2023/01/01 10:10:02;;;;;;;7.03;4.63;;;;;;;15.98;61.92;98310.59;5116301;28;20139;-26
2023/01/01 10:12:41;;;;;;;7.60;4.43;;;;;;;16.17;61.28;98306.38;5118127;27;20306;-26
2023/01/01 10:29:50;;;;;;;8.63;4.20;;;;;;;16.39;60.18;98282.13;5101655;27;21001;-26
2023/01/01 10:32:26;;;;;;;7.10;3.63;;;;;;;16.27;60.98;98278.03;5097896;27;20541;-26
2023/01/01 10:34:52;;;;;;;9.20;4.65;;;;;;;16.24;61.52;98289.03;5106232;27;20027;-27
2023/01/01 10:37:18;;;;;;;6.72;4.20;;;;;;;15.92;62.70;98279.44;5105840;27;20027;-26
2023/01/01 10:39:45;;;;;;;6.43;4.22;;;;;;;16.10;61.50;98266.22;5106956;27;20457;-26
2023/01/01 10:42:12;;;;;;;6.38;3.92;;;;;;;16.20;61.36;98271.91;5124496;27;20027;-26
2023/01/01 10:44:38;;;;;;;7.45;3.92;;;;;;;16.23;60.82;98269.09;5120359;27;20413;-26
2023/01/01 10:47:19;;;;;;;6.28;3.90;;;;;;;16.35;60.54;98262.25;5118398;27;20024;-26
2023/01/01 10:49:56;;;;;;;8.02;4.57;;;;;;;16.42;60.26;98262.13;5128057;27;20053;-26
2023/01/01 10:52:54;;;;;;;8.98;4.07;;;;;;;16.45;60.16;98253.03;5121539;27;20065;-26
2023/01/01 10:55:28;;;;;;;5.05;3.80;;;;;;;16.41;60.21;98261.34;5113994;28;20069;-26
2023/01/01 10:57:54;;;;;;;8.18;3.60;;;;;;;16.39;60.14;98260.22;5133462;27;20023;-25
2023/01/01 11:00:23;;;;;;;5.45;3.75;;;;;;;16.46;60.12;98255.38;5113082;27;20120;-26
2023/01/01 11:03:11;;;;;;;5.88;3.63;;;;;;;16.38;60.32;98250.44;5094488;28;20031;-25
2023/01/01 11:05:37;;;;;;;6.05;3.83;;;;;;;16.48;60.01;98250.25;5112885;27;20051;-26
2023/01/01 11:08:02;;;;;;;6.10;3.75;;;;;;;16.51;60.09;98254.09;5126386;27;20452;-26
2023/01/01 11:10:30;;;;;;;6.25;3.72;;;;;;;16.51;60.05;98245.91;5094964;27;20032;-26
2023/01/01 11:12:56;;;;;;;6.53;3.65;;;;;;;16.53;60.07;98247.03;5133332;27;20020;-26
2023/01/01 11:15:38;;;;;;;7.45;3.83;;;;;;;16.43;60.12;98241.75;5133066;27;20026;-27
2023/01/01 11:18:13;;;;;;;5.38;3.47;;;;;;;16.47;60.09;98240.47;5130578;27;20031;-28
2023/01/01 11:20:40;;;;;;;7.97;4.15;;;;;;;16.48;60.02;98233.81;5112728;28;20035;-26
2023/01/01 11:23:28;;;;;;;7.57;3.92;;;;;;;16.51;59.88;98230.22;5113201;27;20032;-26
2023/01/01 11:25:59;;;;;;;6.20;4.00;;;;;;;16.40;60.72;98232.41;5112975;28;20060;-26
2023/01/01 11:28:25;;;;;;;7.45;3.97;;;;;;;16.44;60.45;98226.88;5112618;28;20023;-26
2023/01/01 11:30:58;;;;;;;10.93;4.57;;;;;;;16.48;60.14;98222.84;5107825;27;20376;-27
2023/01/01 11:33:26;;;;;;;6.50;3.85;;;;;;;16.51;60.55;98224.00;5112642;28;20034;-26
2023/01/01 11:35:55;;;;;;;6.50;3.95;;;;;;;16.45;60.46;98220.97;5098388;27;20471;-26
2023/01/01 11:38:23;;;;;;;5.30;3.72;;;;;;;16.59;60.04;98217.16;5121922;27;20032;-26
2023/01/01 11:40:53;;;;;;;8.00;4.32;;;;;;;16.49;60.34;98210.72;5112157;28;20529;-26
2023/01/01 11:43:27;;;;;;;5.45;3.88;;;;;;;16.51;60.28;98211.06;5112561;28;20387;-26
2023/01/01 11:45:53;;;;;;;;;;;;;;;16.56;60.20;98209.81;5116314;27;20087;-26
2023/01/01 11:48:29;;;;;;;5.25;3.47;;;;;;;16.55;59.93;98200.03;5118357;27;19922;-27
2023/01/01 11:50:59;;;;;;;5.25;3.65;;;;;;;16.50;60.16;98195.06;5111854;28;20482;-28
2023/01/01 11:53:32;;;;;;;6.15;4.05;;;;;;;16.56;60.07;98184.38;5111789;28;20030;-26
2023/01/01 11:56:01;;;;;;;4.68;3.65;;;;;;;16.57;60.01;98191.41;5111741;28;20387;-26
2023/01/01 11:58:30;;;;;;;7.90;4.38;;;;;;;16.59;59.84;98187.03;5111919;28;20054;-26
2023/01/01 12:01:09;;;;;;;9.85;3.92;;;;;;;16.57;60.13;98180.44;5111948;28;20533;-26
2023/01/01 12:03:38;;;;;;;8.00;3.72;;;;;;;16.58;59.88;98187.44;5130436;27;20113;-26
2023/01/01 12:06:26;;;;;;;5.70;4.05;;;;;;;16.59;59.88;98178.03;5131938;27;20030;-26
2023/01/01 12:09:34;;;;;;;5.38;3.58;;;;;;;16.49;60.27;98183.31;5095860;27;20034;-26
2023/01/01 12:12:10;;;;;;;7.25;4.15;;;;;;;16.47;60.32;98177.50;5128100;27;20379;-27
2023/01/01 12:14:53;;;;;;;5.43;3.75;;;;;;;16.41;60.74;98176.47;5114011;27;20019;-25